Updated20/11/2018 01:00 
 

GeoURL
free counters
Scottish Weather Network UK Weather Network Cumulus Top Weather Sites

Peebles Weather - Nearby METAR Reports

Raw Data, Raw Data Expanded

Ignore low humidity and Dew Point values. Something wrong with the sensor.
Daytime temperatures are in direct sunlight so may be higher than official air temperature values.
As with any other website, we log your IP address and browser type in the server logs for diagnostic reasons. Cookies are used to record visit time and gauges preferences. No personal information is stored or processed.

All times are in BST (UTC+1) unless specified.

2018/11/20 00:50 EGPH 200050Z 07009KT 9999 -RA BKN021TCU 06/04 Q1026
5.2°C 0.0 mm 0.0 mm 0.3 mm 7.1 mph 13.0 mph 1021.1 hPa 80% X-Ray Solar Flare Level
Planetary K-Index
Planetary K-Index History
Station Warn Rain Snow Flood Wind Ltng Heat Cold Glob Moon Temp Rain 1h Rain Tue Rain 24h Wind 10m Gust Pressure Hum Proton Levels

0.488 m Waxing Gibbous Cold F2-NNE F: A: Kp:0 SSN:0

METAR Reports

 

EGPH - Edinburgh Airpor, United Kingdom
Distance from station: NNW 22mi, 36km
Updated: 20/11/2018 00:50
Light rain, Mostly cloudy
Light rain, Mostly cloudy
 Wind from ENE
Wind: ENE 10 mph , 17 km/h
Temperature: 6°C
Wind Chill: 3°C
Dew Point: 4°C
Humidity: 87%
Barometer: 1026 hPa
Summary: Light rain
Clouds: Mostly cloudy
Visibility: 6 miles , 10 km
Cloud details: Mostly cloudy 640 m
2018/11/20 00:50 EGPH 200050Z 07009KT 9999 -RA BKN021TCU 06/04 Q1026
EGOM - Spadeadam, United Kingdom
Distance from station: SSE 49mi, 79km
Updated: 19/11/2018 23:50
Mostly cloudy
Mostly cloudy
 Wind from ENE
Wind: ENE 15 mph , 24 km/h
Temperature: 3°C
Wind Chill: -2°C
Dew Point: 3°C
Humidity: 100%
Barometer: 1023 hPa
Clouds: Mostly cloudy
Visibility: 6 miles , 10 km
Cloud details: Partly cloudy 366 m
Mostly cloudy 549 m
2018/11/19 23:50 EGOM 192350Z AUTO 06013KT 9999 SCT012/// BKN018/// 03/03 Q1023 RERA
 
EGNC - Carlisle, United Kingdom
Distance from station: SSE 51mi, 82km
Updated: 12/10/2018 14:50
NOT Current
Light rain, Showers, Overcast
Light rain, Showers, Overcast
 Wind from S
Wind: S 21 mph , 33 km/h, Gust: 38 mph , 61 km/h
Temperature: 16°C
Dew Point: 14°C
Humidity: 88%
Barometer: 992 hPa
Summary: Light rain, Showers
Clouds: Overcast
Visibility: 3 miles , 5 km
Cloud details: Partly cloudy 305 m
Overcast 488 m
2018/10/12 13:50 EGNC 121350Z 18018G33KT 140V220 5000 -SHRA SCT010 OVC016 16/14 Q0992
EGPF - Glasgow Airport, United Kingdom
Distance from station: WNW 51mi, 82km
Updated: 20/11/2018 00:50
Thunderstorm
Thunderstorm
 Wind from NE
Wind: NE 9 mph , 15 km/h
Temperature: 5°C
Wind Chill: 2°C
Dew Point: 3°C
Humidity: 87%
Barometer: 1026 hPa
Clouds: Thunderstorm
Visibility: 6 miles , 10 km
Cloud details: Partly cloudy 884 m
2018/11/20 00:50 EGPF 200050Z AUTO 05008KT 9999 SCT029/// //////CB 05/03 Q1026
 
EGQL - Leuchars Raf, United Kingdom
Distance from station: NNE 53mi, 85km
Updated: 19/11/2018 23:50
Light rain, Showers, Mostly cloudy
Light rain, Showers, Mostly cloudy
 Wind from E
Wind: E 18 mph , 30 km/h, Gust: 32 mph , 52 km/h
Temperature: 6°C
Wind Chill: 2°C
Dew Point: 4°C
Humidity: 87%
Barometer: 1028 hPa
Summary: Light rain, Showers
Clouds: Mostly cloudy
Visibility: 6 miles , 10 km
Cloud details: Few Clouds 823 m
Mostly cloudy 1311 m
2018/11/19 23:50 EGQL 192350Z 09016G28KT 9999 -SHRA FEW027 BKN043 06/04 Q1028 BLU
EGPK - Prestwick(Civ/Na, United Kingdom
Distance from station: W 55mi, 89km
Updated: 20/11/2018 00:50
Few Clouds
Few Clouds
 Wind from ENE
Wind: ENE 8 mph , 13 km/h
Temperature: 5°C
Wind Chill: 2°C
Dew Point: 2°C
Humidity: 81%
Barometer: 1026 hPa
Clouds: Few Clouds
Visibility: 6 miles , 10 km
Cloud details: Few Clouds 853 m
2018/11/20 00:50 EGPK 200050Z 06007KT 9999 FEW028 05/02 Q1026
 
EGPN - Dundee/Riverside, United Kingdom
Distance from station: N 56mi, 90km
Updated: 19/11/2018 20:20
NOT Current
Mostly cloudy
Mostly cloudy
 Wind from ENE
Wind: ENE 8 mph , 13 km/h
Temperature: 7°C
Wind Chill: 5°C
Dew Point: 4°C
Humidity: 81%
Barometer: 1029 hPa
Clouds: Mostly cloudy
Visibility: 6 miles , 10 km
Cloud details: Few Clouds 457 m
Mostly cloudy 762 m
2018/11/19 20:20 EGPN 192020Z 07007KT 9999 FEW015 BKN025 07/04 Q1029
EGNT - Newcastle, United Kingdom
Distance from station: SE 72mi, 116km
Updated: 20/11/2018 00:50
Light rain, Showers, Partly cloudy
Light rain, Showers, Partly cloudy
 Wind from ENE
Wind: ENE 14 mph , 22 km/h
Temperature: 7°C
Wind Chill: 4°C
Dew Point: 3°C
Humidity: 76%
Barometer: 1023 hPa
Summary: Light rain, Showers
Clouds: Partly cloudy
Visibility: 6 miles , 10 km
Cloud details: Partly cloudy 671 m
2018/11/20 00:50 EGNT 200050Z 07012KT 9999 -SHRA SCT022 07/03 Q1023
 
EGNV - Tees-Side, United Kingdom
Distance from station: SE 104mi, 168km
Updated: 19/11/2018 21:50
NOT Current
Nearby showers, Partly cloudy
Nearby showers, Partly cloudy
 Wind from ENE
Wind: ENE 12 mph , 19 km/h
Temperature: 6°C
Wind Chill: 3°C
Dew Point: 3°C
Humidity: 81%
Barometer: 1024 hPa
Summary: Nearby Showers
Clouds: Partly cloudy
Visibility: 6 miles , 9 km
Cloud details: Few Clouds 518 m
Partly cloudy 1158 m
2018/11/19 21:50 EGNV 192150Z 06010KT 9000 VCSH FEW017 SCT038 06/03 Q1024
EGPD - Aberdeen/Dyce, United Kingdom
Distance from station: NNE 114mi, 183km
Updated: 20/11/2018 00:50
Thunderstorm
Thunderstorm
 Wind from E
Wind: E 12 mph , 19 km/h
Temperature: 7°C
Wind Chill: 4°C
Dew Point: 2°C
Humidity: 71%
Barometer: 1030 hPa
Clouds: Thunderstorm
Visibility: 6 miles , 10 km
Cloud details: Few Clouds 732 m
Partly cloudy 945 m
Mostly cloudy 1158 m
2018/11/20 00:50 EGPD 200050Z AUTO 09010KT 9999 FEW024/// SCT031/// BKN038/// //////TCU 07/02 Q1030 NOSIG
 
EGNS - Isle Of Man/Rona, United Kingdom
Distance from station: SSW 122mi, 197km
Updated: 20/11/2018 00:50
Partly cloudy
Partly cloudy
 Wind from E
Wind: E 25 mph , 41 km/h
Temperature: 8°C
Wind Chill: 3°C
Dew Point: 2°C
Humidity: 66%
Barometer: 1021 hPa
Clouds: Partly cloudy
Visibility: 6 miles , 10 km
Cloud details: Partly cloudy 762 m
2018/11/20 00:50 EGNS 200050Z 08022KT 9999 SCT025 08/02 Q1021
EGAC - Belfast Harbour, United Kingdom
Distance from station: WSW 128mi, 206km
Updated: 20/11/2018 00:50
Partly cloudy
Partly cloudy
 Wind from ENE
Wind: ENE 13 mph , 20 km/h
Temperature: 6°C
Wind Chill: 2°C
Dew Point: 3°C
Humidity: 81%
Barometer: 1023 hPa
Clouds: Partly cloudy
Visibility: 6 miles , 10 km
Cloud details: Partly cloudy 792 m
2018/11/20 00:50 EGAC 200050Z AUTO 06011KT 9999 SCT026/// 06/03 Q1023
 
EGPE - Inverness/Dalcro, United Kingdom
Distance from station: NNW 134mi, 215km
Updated: 20/11/2018 00:50
Mostly cloudy
Mostly cloudy
 Wind from NE
Wind: NE 9 mph , 15 km/h
Temperature: 5°C
Wind Chill: 2°C
Dew Point: 3°C
Humidity: 87%
Barometer: 1030 hPa
Clouds: Mostly cloudy
Visibility: 6 miles , 10 km
Cloud details: Mostly cloudy 640 m
2018/11/20 00:50 EGPE 200050Z AUTO 05008KT 9999 BKN021/// 05/03 Q1030
XHTML 1.1 | CSS